< < Back
Terminal Aerodrome Forecast


Current Version              Previous Versions:   1  2  3  4  5  6  7  8  9  

Terminal Aerodrome Forecast

943
FTUS42 KCHS 290433 CCA
TAFSAV
TAF COR
KSAV 290433Z 2904/2924 33011KT 6SM RA BKN009
     FM290600 33011KT P6SM -RA SCT008 BKN015 OVC025
     FM290800 32012KT P6SM SCT005 BKN008 OVC015
     FM291200 33012G19KT P6SM SCT008 OVC012
     FM291400 32013G21KT P6SM SCT015 BKN040=



Latest METAR

675
SAUS80 KWBC 291100 RRA
MTRSAV
METAR KSAV 291053Z 31013G22KT 10SM -RA BKN011 OVC023 21/19 A2998 RMK AO2
SLP150 P0000 T02060189


USA.gov is the U.S. government's official web portal to all federal, state and local government web resources and services.